createdAt,value
2017-08-05T00:00:02.552Z,20.9
2017-08-05T00:15:03.203Z,20.8
2017-08-05T00:30:02.885Z,20.8
2017-08-05T00:45:03.457Z,21
2017-08-05T01:00:03.046Z,20.4
2017-08-05T01:15:02.685Z,20.8
2017-08-05T01:30:03.406Z,20.7
2017-08-05T01:45:02.996Z,20.3
2017-08-05T02:00:02.604Z,20.2
2017-08-05T02:15:03.210Z,19.9
2017-08-05T02:30:02.958Z,19.9
2017-08-05T02:45:02.600Z,20.1
2017-08-05T03:00:03.179Z,19.9
2017-08-05T03:15:02.805Z,19.7
2017-08-05T03:30:03.445Z,19.6
2017-08-05T03:45:02.975Z,19.8
2017-08-05T04:00:02.586Z,19.4
2017-08-05T04:15:03.208Z,19.5
2017-08-05T04:30:02.904Z,19.2
2017-08-05T04:45:03.504Z,19.1
2017-08-05T05:00:03.061Z,19
2017-08-05T05:15:02.706Z,19.6
2017-08-05T05:30:03.349Z,19.8
2017-08-05T05:45:03.176Z,20.1
2017-08-05T06:00:02.787Z,20.2
2017-08-05T06:15:03.413Z,20.1
2017-08-05T06:30:03.189Z,20.5
2017-08-05T06:45:02.787Z,20.4
2017-08-05T07:00:03.417Z,20.6
2017-08-05T07:15:03.015Z,21.3
2017-08-05T07:30:02.662Z,21.5
2017-08-05T07:45:03.252Z,21.9
2017-08-05T08:00:02.901Z,21.9
2017-08-05T08:15:03.469Z,22.6
2017-08-05T08:30:03.186Z,23.7
2017-08-05T08:45:02.822Z,25.1
2017-08-05T09:00:03.428Z,25.5
2017-08-05T09:15:03.054Z,26.8
2017-08-05T09:30:02.695Z,26.5
2017-08-05T09:45:03.328Z,28.7
2017-08-05T10:00:02.874Z,29.1
2017-08-05T10:15:03.508Z,30.1
2017-08-05T10:30:03.151Z,30.3
2017-08-05T10:45:02.790Z,29.9
2017-08-05T11:00:03.428Z,30
2017-08-05T11:15:03.016Z,31.6
2017-08-05T11:30:02.715Z,31.9
2017-08-05T11:45:03.274Z,32.2
2017-08-05T12:00:02.895Z,32.3
2017-08-05T12:15:03.469Z,30.2
2017-08-05T12:30:03.150Z,30.6
2017-08-05T12:45:02.796Z,32.2
2017-08-05T13:00:03.359Z,30.8
2017-08-05T13:15:02.945Z,29.8
2017-08-05T13:30:02.628Z,31.8
2017-08-05T13:45:03.177Z,31.8
2017-08-05T14:00:02.768Z,32.5
2017-08-05T14:15:03.400Z,30.8
2017-08-05T14:30:03.070Z,30.6
2017-08-05T14:45:02.623Z,30.4
2017-08-05T15:00:03.240Z,28.9
2017-08-05T15:15:02.841Z,29.4
2017-08-05T15:30:02.526Z,29.4
2017-08-05T15:45:03.078Z,28.5
2017-08-05T16:00:02.679Z,27.8
2017-08-05T16:15:03.258Z,28.3
2017-08-05T16:30:02.959Z,28.1
2017-08-05T16:45:02.587Z,27.8
2017-08-05T17:00:03.173Z,27.7
2017-08-05T17:15:02.808Z,27.6
2017-08-05T17:30:03.455Z,27.8
2017-08-05T17:45:03.049Z,27.2
2017-08-05T18:00:02.711Z,26.8
2017-08-05T18:15:03.378Z,25.5
2017-08-05T18:30:03.094Z,23.9
2017-08-05T18:45:02.655Z,23.8
2017-08-05T19:00:03.290Z,23
2017-08-05T19:15:02.950Z,22.4
2017-08-05T19:30:02.610Z,22.4
2017-08-05T19:45:03.169Z,22.4
2017-08-05T20:00:02.817Z,21.9
2017-08-05T20:15:03.407Z,22.2
2017-08-05T20:30:03.103Z,21.9
2017-08-05T20:45:02.704Z,21.1
2017-08-05T21:00:03.366Z,20.3
2017-08-05T21:15:02.957Z,20.7
2017-08-05T21:30:02.646Z,19.4
2017-08-05T21:45:03.274Z,19.8
2017-08-05T22:00:02.843Z,19.5
2017-08-05T22:15:03.473Z,19.4
2017-08-05T22:30:03.169Z,19.6
2017-08-05T22:45:02.726Z,19.6
2017-08-05T23:00:03.399Z,19.1
2017-08-05T23:15:03.007Z,19.1
2017-08-05T23:30:02.705Z,19.1
2017-08-05T23:45:03.318Z,19.7
